sensor_id;sensor_type;location;lat;lon;timestamp;pressure;altitude;pressure_sealevel;temperature;humidity
64340;BME280;63709;53.258;-8.814;2023-11-21T00:01:25;102858.16;;;11.78;100.00
64340;BME280;63709;53.258;-8.814;2023-11-21T00:03:50;102866.03;;;11.81;100.00
64340;BME280;63709;53.258;-8.814;2023-11-21T00:06:16;102876.50;;;11.88;100.00
64340;BME280;63709;53.258;-8.814;2023-11-21T00:08:44;102864.97;;;11.67;100.00
64340;BME280;63709;53.258;-8.814;2023-11-21T00:11:10;102865.41;;;11.57;100.00
64340;BME280;63709;53.258;-8.814;2023-11-21T00:13:35;102871.13;;;11.69;100.00
64340;BME280;63709;53.258;-8.814;2023-11-21T00:16:01;102870.66;;;11.59;100.00
64340;BME280;63709;53.258;-8.814;2023-11-21T00:18:26;102874.34;;;11.75;100.00
64340;BME280;63709;53.258;-8.814;2023-11-21T00:20:52;102862.06;;;11.71;100.00
64340;BME280;63709;53.258;-8.814;2023-11-21T00:23:17;102849.50;;;11.73;100.00
64340;BME280;63709;53.258;-8.814;2023-11-21T00:25:43;102864.38;;;11.60;100.00
64340;BME280;63709;53.258;-8.814;2023-11-21T00:28:09;102868.63;;;11.64;100.00
64340;BME280;63709;53.258;-8.814;2023-11-21T00:30:35;102879.88;;;11.72;100.00
64340;BME280;63709;53.258;-8.814;2023-11-21T00:33:01;102876.97;;;11.58;100.00
64340;BME280;63709;53.258;-8.814;2023-11-21T00:35:26;102881.72;;;11.70;100.00
64340;BME280;63709;53.258;-8.814;2023-11-21T00:37:51;102873.56;;;11.73;100.00
64340;BME280;63709;53.258;-8.814;2023-11-21T00:40:17;102881.72;;;11.70;100.00
64340;BME280;63709;53.258;-8.814;2023-11-21T00:42:46;102898.88;;;11.86;100.00
64340;BME280;63709;53.258;-8.814;2023-11-21T00:45:12;102895.09;;;11.91;100.00
64340;BME280;63709;53.258;-8.814;2023-11-21T00:47:38;102889.50;;;11.76;100.00
64340;BME280;63709;53.258;-8.814;2023-11-21T00:50:04;102890.41;;;11.75;100.00
64340;BME280;63709;53.258;-8.814;2023-11-21T00:52:31;102888.31;;;11.82;100.00
64340;BME280;63709;53.258;-8.814;2023-11-21T00:54:57;102869.31;;;11.69;100.00
64340;BME280;63709;53.258;-8.814;2023-11-21T00:57:25;102880.13;;;11.86;100.00
64340;BME280;63709;53.258;-8.814;2023-11-21T00:59:51;102882.59;;;11.91;100.00
64340;BME280;63709;53.258;-8.814;2023-11-21T01:02:16;102885.25;;;11.91;100.00
64340;BME280;63709;53.258;-8.814;2023-11-21T01:04:42;102881.13;;;11.84;100.00
64340;BME280;63709;53.258;-8.814;2023-11-21T01:07:07;102877.28;;;11.90;100.00
64340;BME280;63709;53.258;-8.814;2023-11-21T01:09:33;102866.41;;;11.74;100.00
64340;BME280;63709;53.258;-8.814;2023-11-21T01:11:58;102872.97;;;11.87;100.00
64340;BME280;63709;53.258;-8.814;2023-11-21T01:14:25;102884.38;;;11.91;100.00
64340;BME280;63709;53.258;-8.814;2023-11-21T01:16:52;102876.38;;;11.70;100.00
64340;BME280;63709;53.258;-8.814;2023-11-21T01:19:17;102894.00;;;11.95;100.00
64340;BME280;63709;53.258;-8.814;2023-11-21T01:21:42;102903.31;;;11.86;100.00
64340;BME280;63709;53.258;-8.814;2023-11-21T01:24:08;102892.91;;;11.99;100.00
64340;BME280;63709;53.258;-8.814;2023-11-21T01:26:33;102888.66;;;11.95;100.00
64340;BME280;63709;53.258;-8.814;2023-11-21T01:28:59;102903.50;;;12.02;100.00
64340;BME280;63709;53.258;-8.814;2023-11-21T01:31:25;102904.13;;;11.88;100.00
64340;BME280;63709;53.258;-8.814;2023-11-21T01:33:55;102900.25;;;11.75;100.00
64340;BME280;63709;53.258;-8.814;2023-11-21T01:36:20;102905.94;;;11.88;100.00
64340;BME280;63709;53.258;-8.814;2023-11-21T01:38:46;102905.81;;;11.91;100.00
64340;BME280;63709;53.258;-8.814;2023-11-21T01:41:13;102895.72;;;11.96;100.00
64340;BME280;63709;53.258;-8.814;2023-11-21T01:43:39;102903.03;;;11.92;100.00
64340;BME280;63709;53.258;-8.814;2023-11-21T01:46:05;102903.91;;;11.93;100.00
64340;BME280;63709;53.258;-8.814;2023-11-21T01:48:31;102904.03;;;11.90;100.00
64340;BME280;63709;53.258;-8.814;2023-11-21T01:50:58;102911.44;;;12.03;100.00
64340;BME280;63709;53.258;-8.814;2023-11-21T01:53:25;102899.84;;;12.03;100.00
64340;BME280;63709;53.258;-8.814;2023-11-21T01:55:51;102899.78;;;11.85;100.00
64340;BME280;63709;53.258;-8.814;2023-11-21T01:58:19;102901.91;;;11.98;100.00
64340;BME280;63709;53.258;-8.814;2023-11-21T02:00:45;102907.94;;;12.01;100.00
64340;BME280;63709;53.258;-8.814;2023-11-21T02:03:10;102907.16;;;11.99;100.00
64340;BME280;63709;53.258;-8.814;2023-11-21T02:05:36;102911.78;;;11.96;100.00
64340;BME280;63709;53.258;-8.814;2023-11-21T02:08:01;102909.25;;;11.93;100.00
64340;BME280;63709;53.258;-8.814;2023-11-21T02:10:27;102913.16;;;12.04;100.00
64340;BME280;63709;53.258;-8.814;2023-11-21T02:12:54;102916.94;;;12.00;100.00
64340;BME280;63709;53.258;-8.814;2023-11-21T02:15:21;102914.81;;;12.07;100.00
64340;BME280;63709;53.258;-8.814;2023-11-21T02:17:49;102916.50;;;11.91;100.00
64340;BME280;63709;53.258;-8.814;2023-11-21T02:20:17;102923.31;;;11.98;100.00
64340;BME280;63709;53.258;-8.814;2023-11-21T02:22:51;102929.53;;;11.98;100.00
64340;BME280;63709;53.258;-8.814;2023-11-21T02:25:29;102936.53;;;12.01;100.00
64340;BME280;63709;53.258;-8.814;2023-11-21T02:28:01;102934.06;;;11.96;100.00
64340;BME280;63709;53.258;-8.814;2023-11-21T02:30:27;102935.88;;;11.96;100.00
64340;BME280;63709;53.258;-8.814;2023-11-21T02:32:54;102934.78;;;12.00;100.00
64340;BME280;63709;53.258;-8.814;2023-11-21T02:35:20;102960.78;;;11.98;100.00
64340;BME280;63709;53.258;-8.814;2023-11-21T02:37:47;102961.78;;;11.95;100.00
64340;BME280;63709;53.258;-8.814;2023-11-21T02:40:12;102960.78;;;11.98;100.00
64340;BME280;63709;53.258;-8.814;2023-11-21T02:42:41;102959.47;;;11.88;100.00
64340;BME280;63709;53.258;-8.814;2023-11-21T02:45:07;102954.75;;;11.93;100.00
64340;BME280;63709;53.258;-8.814;2023-11-21T02:47:33;102967.81;;;11.80;100.00
64340;BME280;63709;53.258;-8.814;2023-11-21T02:49:59;102971.03;;;11.88;100.00
64340;BME280;63709;53.258;-8.814;2023-11-21T02:52:24;102980.06;;;11.85;100.00
64340;BME280;63709;53.258;-8.814;2023-11-21T02:54:50;102960.91;;;11.74;100.00
64340;BME280;63709;53.258;-8.814;2023-11-21T02:57:16;102971.56;;;11.76;100.00
64340;BME280;63709;53.258;-8.814;2023-11-21T02:59:41;102957.72;;;11.66;100.00
64340;BME280;63709;53.258;-8.814;2023-11-21T03:02:07;102967.34;;;11.70;100.00
64340;BME280;63709;53.258;-8.814;2023-11-21T03:04:34;102964.72;;;11.50;100.00
64340;BME280;63709;53.258;-8.814;2023-11-21T03:07:00;102984.34;;;11.49;100.00
64340;BME280;63709;53.258;-8.814;2023-11-21T03:09:26;102991.38;;;11.51;100.00
64340;BME280;63709;53.258;-8.814;2023-11-21T03:11:52;102984.22;;;11.52;100.00
64340;BME280;63709;53.258;-8.814;2023-11-21T03:14:18;102989.13;;;11.42;100.00
64340;BME280;63709;53.258;-8.814;2023-11-21T03:16:43;102986.91;;;11.31;100.00
64340;BME280;63709;53.258;-8.814;2023-11-21T03:19:09;102997.59;;;11.31;100.00
64340;BME280;63709;53.258;-8.814;2023-11-21T03:21:35;103009.63;;;11.21;100.00
64340;BME280;63709;53.258;-8.814;2023-11-21T03:24:01;103017.47;;;11.04;100.00
64340;BME280;63709;53.258;-8.814;2023-11-21T03:26:26;103018.16;;;11.09;100.00
64340;BME280;63709;53.258;-8.814;2023-11-21T03:28:52;103022.31;;;11.16;100.00
64340;BME280;63709;53.258;-8.814;2023-11-21T03:31:20;103014.22;;;11.18;100.00
64340;BME280;63709;53.258;-8.814;2023-11-21T03:33:46;103020.34;;;11.20;100.00
64340;BME280;63709;53.258;-8.814;2023-11-21T03:36:12;103007.19;;;11.15;100.00
64340;BME280;63709;53.258;-8.814;2023-11-21T03:38:40;103020.63;;;11.13;100.00
64340;BME280;63709;53.258;-8.814;2023-11-21T03:41:06;103023.44;;;11.10;100.00
64340;BME280;63709;53.258;-8.814;2023-11-21T03:43:32;103027.78;;;11.13;100.00
64340;BME280;63709;53.258;-8.814;2023-11-21T03:45:57;103025.13;;;11.13;100.00
64340;BME280;63709;53.258;-8.814;2023-11-21T03:48:23;103034.63;;;11.20;100.00
64340;BME280;63709;53.258;-8.814;2023-11-21T03:50:49;103023.22;;;11.15;100.00
64340;BME280;63709;53.258;-8.814;2023-11-21T03:53:15;103037.88;;;11.27;100.00
64340;BME280;63709;53.258;-8.814;2023-11-21T03:55:40;103039.50;;;11.31;100.00
64340;BME280;63709;53.258;-8.814;2023-11-21T03:58:06;103030.03;;;11.24;100.00
64340;BME280;63709;53.258;-8.814;2023-11-21T04:00:31;103038.50;;;11.33;100.00
64340;BME280;63709;53.258;-8.814;2023-11-21T04:02:57;103039.97;;;11.41;100.00
64340;BME280;63709;53.258;-8.814;2023-11-21T04:05:22;103039.66;;;11.28;100.00
64340;BME280;63709;53.258;-8.814;2023-11-21T04:07:49;103030.56;;;11.32;100.00
64340;BME280;63709;53.258;-8.814;2023-11-21T04:10:16;103052.28;;;11.45;100.00
64340;BME280;63709;53.258;-8.814;2023-11-21T04:12:41;103041.22;;;11.54;100.00
64340;BME280;63709;53.258;-8.814;2023-11-21T04:15:07;103046.16;;;11.43;100.00
64340;BME280;63709;53.258;-8.814;2023-11-21T04:17:34;103039.19;;;11.38;100.00
64340;BME280;63709;53.258;-8.814;2023-11-21T04:19:59;103038.38;;;11.36;100.00
64340;BME280;63709;53.258;-8.814;2023-11-21T04:22:25;103038.78;;;11.27;100.00
64340;BME280;63709;53.258;-8.814;2023-11-21T04:24:50;103057.84;;;11.40;100.00
64340;BME280;63709;53.258;-8.814;2023-11-21T04:27:16;103061.81;;;11.30;100.00
64340;BME280;63709;53.258;-8.814;2023-11-21T04:29:43;103060.06;;;11.51;100.00
64340;BME280;63709;53.258;-8.814;2023-11-21T04:32:09;103060.09;;;11.49;100.00
64340;BME280;63709;53.258;-8.814;2023-11-21T04:34:35;103049.28;;;11.10;100.00
64340;BME280;63709;53.258;-8.814;2023-11-21T04:37:01;103053.81;;;11.08;100.00
64340;BME280;63709;53.258;-8.814;2023-11-21T04:39:28;103052.22;;;11.04;100.00
64340;BME280;63709;53.258;-8.814;2023-11-21T04:41:53;103067.63;;;10.97;100.00
64340;BME280;63709;53.258;-8.814;2023-11-21T04:44:19;103070.03;;;10.81;100.00
64340;BME280;63709;53.258;-8.814;2023-11-21T04:46:45;103081.91;;;10.74;100.00
64340;BME280;63709;53.258;-8.814;2023-11-21T04:49:10;103076.03;;;10.43;100.00
64340;BME280;63709;53.258;-8.814;2023-11-21T04:51:36;103083.31;;;10.37;100.00
64340;BME280;63709;53.258;-8.814;2023-11-21T04:54:01;103086.53;;;10.47;100.00
64340;BME280;63709;53.258;-8.814;2023-11-21T04:56:27;103089.00;;;10.52;100.00
64340;BME280;63709;53.258;-8.814;2023-11-21T04:58:53;103088.97;;;10.75;100.00
64340;BME280;63709;53.258;-8.814;2023-11-21T05:01:19;103092.97;;;10.65;100.00
64340;BME280;63709;53.258;-8.814;2023-11-21T05:03:44;103088.84;;;10.78;100.00
64340;BME280;63709;53.258;-8.814;2023-11-21T05:06:10;103080.84;;;10.78;100.00
64340;BME280;63709;53.258;-8.814;2023-11-21T05:08:35;103092.81;;;10.92;100.00
64340;BME280;63709;53.258;-8.814;2023-11-21T05:11:02;103103.31;;;10.96;100.00
64340;BME280;63709;53.258;-8.814;2023-11-21T05:13:28;103100.13;;;11.08;100.00
64340;BME280;63709;53.258;-8.814;2023-11-21T05:15:56;103094.03;;;11.05;100.00
64340;BME280;63709;53.258;-8.814;2023-11-21T05:18:25;103094.50;;;11.16;100.00
64340;BME280;63709;53.258;-8.814;2023-11-21T05:20:55;103099.66;;;11.21;100.00
64340;BME280;63709;53.258;-8.814;2023-11-21T05:23:20;103096.16;;;11.19;100.00
64340;BME280;63709;53.258;-8.814;2023-11-21T05:25:46;103101.19;;;11.26;100.00
64340;BME280;63709;53.258;-8.814;2023-11-21T05:28:12;103103.97;;;11.23;100.00
64340;BME280;63709;53.258;-8.814;2023-11-21T05:30:37;103115.38;;;11.28;100.00
64340;BME280;63709;53.258;-8.814;2023-11-21T05:33:04;103103.13;;;11.23;100.00
64340;BME280;63709;53.258;-8.814;2023-11-21T05:35:30;103119.84;;;11.28;100.00
64340;BME280;63709;53.258;-8.814;2023-11-21T05:37:56;103115.63;;;11.22;100.00
64340;BME280;63709;53.258;-8.814;2023-11-21T05:40:21;103122.03;;;11.18;100.00
64340;BME280;63709;53.258;-8.814;2023-11-21T05:42:47;103123.06;;;11.14;100.00
64340;BME280;63709;53.258;-8.814;2023-11-21T05:45:13;103123.44;;;11.05;100.00
64340;BME280;63709;53.258;-8.814;2023-11-21T05:47:41;103122.09;;;10.95;100.00
64340;BME280;63709;53.258;-8.814;2023-11-21T05:50:08;103121.13;;;10.96;100.00
64340;BME280;63709;53.258;-8.814;2023-11-21T05:52:41;103120.91;;;10.78;100.00
64340;BME280;63709;53.258;-8.814;2023-11-21T05:55:07;103114.22;;;10.68;100.00
64340;BME280;63709;53.258;-8.814;2023-11-21T05:57:36;103115.31;;;10.62;100.00
64340;BME280;63709;53.258;-8.814;2023-11-21T06:00:07;103113.16;;;10.49;100.00
64340;BME280;63709;53.258;-8.814;2023-11-21T06:02:40;103112.34;;;10.47;100.00
64340;BME280;63709;53.258;-8.814;2023-11-21T06:05:07;103101.03;;;10.15;100.00
64340;BME280;63709;53.258;-8.814;2023-11-21T06:07:33;103084.88;;;9.94;100.00
64340;BME280;63709;53.258;-8.814;2023-11-21T06:09:58;103107.59;;;10.05;100.00
64340;BME280;63709;53.258;-8.814;2023-11-21T06:12:24;103107.59;;;10.05;100.00
64340;BME280;63709;53.258;-8.814;2023-11-21T06:14:50;103112.41;;;10.20;100.00
64340;BME280;63709;53.258;-8.814;2023-11-21T06:17:16;103108.94;;;10.18;100.00
64340;BME280;63709;53.258;-8.814;2023-11-21T06:19:43;103113.97;;;10.27;100.00
64340;BME280;63709;53.258;-8.814;2023-11-21T06:22:11;103116.47;;;10.32;100.00
64340;BME280;63709;53.258;-8.814;2023-11-21T06:24:38;103122.56;;;10.35;100.00
64340;BME280;63709;53.258;-8.814;2023-11-21T06:27:04;103113.91;;;10.29;100.00
64340;BME280;63709;53.258;-8.814;2023-11-21T06:29:30;103111.81;;;10.37;100.00
64340;BME280;63709;53.258;-8.814;2023-11-21T06:31:56;103128.56;;;10.42;100.00
64340;BME280;63709;53.258;-8.814;2023-11-21T06:34:21;103119.13;;;10.32;100.00
64340;BME280;63709;53.258;-8.814;2023-11-21T06:36:48;103138.59;;;10.59;100.00
64340;BME280;63709;53.258;-8.814;2023-11-21T06:39:13;103134.81;;;10.41;100.00
64340;BME280;63709;53.258;-8.814;2023-11-21T06:41:40;103144.78;;;10.36;100.00
64340;BME280;63709;53.258;-8.814;2023-11-21T06:44:06;103139.78;;;10.27;100.00
64340;BME280;63709;53.258;-8.814;2023-11-21T06:46:31;103145.72;;;10.35;100.00
64340;BME280;63709;53.258;-8.814;2023-11-21T06:48:56;103134.28;;;10.31;100.00
64340;BME280;63709;53.258;-8.814;2023-11-21T06:51:22;103147.63;;;10.31;100.00
64340;BME280;63709;53.258;-8.814;2023-11-21T06:53:47;103147.88;;;10.24;100.00
64340;BME280;63709;53.258;-8.814;2023-11-21T06:56:19;103157.63;;;10.25;100.00
64340;BME280;63709;53.258;-8.814;2023-11-21T06:58:45;103161.00;;;10.55;100.00
64340;BME280;63709;53.258;-8.814;2023-11-21T07:01:12;103164.50;;;10.57;100.00
64340;BME280;63709;53.258;-8.814;2023-11-21T07:03:38;103163.31;;;10.40;100.00
64340;BME280;63709;53.258;-8.814;2023-11-21T07:06:04;103174.25;;;10.33;100.00
64340;BME280;63709;53.258;-8.814;2023-11-21T07:08:30;103174.53;;;10.25;100.00
64340;BME280;63709;53.258;-8.814;2023-11-21T07:10:55;103177.44;;;10.17;100.00
64340;BME280;63709;53.258;-8.814;2023-11-21T07:13:20;103172.03;;;10.19;100.00
64340;BME280;63709;53.258;-8.814;2023-11-21T07:15:48;103182.72;;;10.19;100.00
64340;BME280;63709;53.258;-8.814;2023-11-21T07:18:14;103189.19;;;10.12;100.00
64340;BME280;63709;53.258;-8.814;2023-11-21T07:20:39;103187.66;;;10.05;100.00
64340;BME280;63709;53.258;-8.814;2023-11-21T07:23:05;103201.34;;;9.96;100.00
64340;BME280;63709;53.258;-8.814;2023-11-21T07:25:31;103191.13;;;9.82;100.00
64340;BME280;63709;53.258;-8.814;2023-11-21T07:27:57;103200.06;;;9.81;100.00
64340;BME280;63709;53.258;-8.814;2023-11-21T07:30:22;103196.81;;;9.71;100.00
64340;BME280;63709;53.258;-8.814;2023-11-21T07:32:48;103204.81;;;9.71;100.00
64340;BME280;63709;53.258;-8.814;2023-11-21T07:35:14;103179.84;;;9.74;100.00
64340;BME280;63709;53.258;-8.814;2023-11-21T07:37:40;103183.63;;;9.93;100.00
64340;BME280;63709;53.258;-8.814;2023-11-21T07:40:06;103186.34;;;9.91;100.00
64340;BME280;63709;53.258;-8.814;2023-11-21T07:42:34;103190.88;;;9.89;100.00
64340;BME280;63709;53.258;-8.814;2023-11-21T07:45:00;103194.03;;;9.76;100.00
64340;BME280;63709;53.258;-8.814;2023-11-21T07:47:25;103185.69;;;9.58;100.00
64340;BME280;63709;53.258;-8.814;2023-11-21T07:49:53;103169.34;;;9.69;100.00
64340;BME280;63709;53.258;-8.814;2023-11-21T07:52:18;103190.09;;;9.59;100.00
64340;BME280;63709;53.258;-8.814;2023-11-21T07:54:46;103203.69;;;9.78;100.00
64340;BME280;63709;53.258;-8.814;2023-11-21T07:57:11;103217.44;;;9.66;100.00
64340;BME280;63709;53.258;-8.814;2023-11-21T07:59:40;103227.69;;;9.78;100.00
64340;BME280;63709;53.258;-8.814;2023-11-21T08:02:08;103228.00;;;9.69;100.00
64340;BME280;63709;53.258;-8.814;2023-11-21T08:04:34;103233.34;;;9.69;100.00
64340;BME280;63709;53.258;-8.814;2023-11-21T08:07:01;103233.53;;;9.63;100.00
64340;BME280;63709;53.258;-8.814;2023-11-21T08:09:26;103251.25;;;9.65;100.00
64340;BME280;63709;53.258;-8.814;2023-11-21T08:11:52;103244.94;;;9.68;100.00
64340;BME280;63709;53.258;-8.814;2023-11-21T08:14:18;103227.22;;;9.65;100.00
64340;BME280;63709;53.258;-8.814;2023-11-21T08:16:44;103242.63;;;9.57;100.00
64340;BME280;63709;53.258;-8.814;2023-11-21T08:19:10;103255.34;;;9.48;100.00
64340;BME280;63709;53.258;-8.814;2023-11-21T08:21:36;103250.56;;;9.59;100.00
64340;BME280;63709;53.258;-8.814;2023-11-21T08:24:05;103227.88;;;9.45;100.00
64340;BME280;63709;53.258;-8.814;2023-11-21T08:26:30;103237.66;;;9.45;100.00
64340;BME280;63709;53.258;-8.814;2023-11-21T08:28:56;103253.41;;;9.53;100.00
64340;BME280;63709;53.258;-8.814;2023-11-21T08:31:26;103255.34;;;9.48;100.00
64340;BME280;63709;53.258;-8.814;2023-11-21T08:33:51;103229.56;;;9.48;100.00
64340;BME280;63709;53.258;-8.814;2023-11-21T08:36:20;103244.44;;;9.55;100.00
64340;BME280;63709;53.258;-8.814;2023-11-21T08:38:46;103256.06;;;9.53;100.00
64340;BME280;63709;53.258;-8.814;2023-11-21T08:41:11;103270.31;;;9.53;100.00
64340;BME280;63709;53.258;-8.814;2023-11-21T08:43:37;103279.75;;;9.34;100.00
64340;BME280;63709;53.258;-8.814;2023-11-21T08:46:06;103272.41;;;9.42;100.00
64340;BME280;63709;53.258;-8.814;2023-11-21T08:48:31;103296.19;;;9.50;100.00
64340;BME280;63709;53.258;-8.814;2023-11-21T08:50:57;103301.38;;;9.53;100.00
64340;BME280;63709;53.258;-8.814;2023-11-21T08:53:22;103296.81;;;9.58;100.00
64340;BME280;63709;53.258;-8.814;2023-11-21T08:55:48;103296.25;;;9.76;100.00
64340;BME280;63709;53.258;-8.814;2023-11-21T08:58:15;103302.88;;;9.91;100.00
64340;BME280;63709;53.258;-8.814;2023-11-21T09:00:41;103291.53;;;9.84;100.00
64340;BME280;63709;53.258;-8.814;2023-11-21T09:03:06;103280.94;;;9.81;100.00
64340;BME280;63709;53.258;-8.814;2023-11-21T09:05:37;103290.59;;;9.85;100.00
64340;BME280;63709;53.258;-8.814;2023-11-21T09:08:03;103301.31;;;9.84;100.00
64340;BME280;63709;53.258;-8.814;2023-11-21T09:10:29;103292.97;;;9.66;100.00
64340;BME280;63709;53.258;-8.814;2023-11-21T09:12:54;103298.59;;;9.85;100.00
64340;BME280;63709;53.258;-8.814;2023-11-21T09:15:20;103285.00;;;9.93;100.00
64340;BME280;63709;53.258;-8.814;2023-11-21T09:17:45;103279.47;;;9.99;100.00
64340;BME280;63709;53.258;-8.814;2023-11-21T09:20:11;103294.13;;;10.14;100.00
64340;BME280;63709;53.258;-8.814;2023-11-21T09:22:37;103285.19;;;10.15;100.00
64340;BME280;63709;53.258;-8.814;2023-11-21T09:25:02;103277.91;;;10.20;100.00
64340;BME280;63709;53.258;-8.814;2023-11-21T09:27:31;103278.38;;;10.33;100.00
64340;BME280;63709;53.258;-8.814;2023-11-21T09:29:56;103274.56;;;10.40;100.00
64340;BME280;63709;53.258;-8.814;2023-11-21T09:32:23;103281.78;;;10.63;100.00
64340;BME280;63709;53.258;-8.814;2023-11-21T09:34:49;103277.75;;;10.76;100.00
64340;BME280;63709;53.258;-8.814;2023-11-21T09:37:15;103280.91;;;10.62;100.00
64340;BME280;63709;53.258;-8.814;2023-11-21T09:39:41;103278.50;;;10.80;100.00
64340;BME280;63709;53.258;-8.814;2023-11-21T09:42:14;103288.53;;;10.98;100.00
64340;BME280;63709;53.258;-8.814;2023-11-21T09:45:08;103285.84;;;10.98;100.00
64340;BME280;63709;53.258;-8.814;2023-11-21T09:47:39;103295.59;;;11.23;100.00
64340;BME280;63709;53.258;-8.814;2023-11-21T09:50:05;103294.84;;;11.19;100.00
64340;BME280;63709;53.258;-8.814;2023-11-21T09:52:40;103288.59;;;11.20;100.00
64340;BME280;63709;53.258;-8.814;2023-11-21T09:55:09;103277.75;;;11.23;100.00
64340;BME280;63709;53.258;-8.814;2023-11-21T09:57:38;103299.69;;;11.33;100.00
64340;BME280;63709;53.258;-8.814;2023-11-21T10:00:04;103302.16;;;11.37;100.00
64340;BME280;63709;53.258;-8.814;2023-11-21T10:02:32;103307.75;;;11.55;100.00
64340;BME280;63709;53.258;-8.814;2023-11-21T10:05:02;103310.03;;;11.64;100.00
64340;BME280;63709;53.258;-8.814;2023-11-21T10:07:30;103292.53;;;11.57;100.00
64340;BME280;63709;53.258;-8.814;2023-11-21T10:09:57;103301.41;;;11.57;100.00
64340;BME280;63709;53.258;-8.814;2023-11-21T10:12:26;103299.31;;;11.66;100.00
64340;BME280;63709;53.258;-8.814;2023-11-21T10:14:52;103301.00;;;11.68;100.00
64340;BME280;63709;53.258;-8.814;2023-11-21T10:17:23;103303.47;;;11.73;100.00
64340;BME280;63709;53.258;-8.814;2023-11-21T10:19:51;103311.13;;;11.83;100.00
64340;BME280;63709;53.258;-8.814;2023-11-21T10:22:19;103311.88;;;11.87;100.00
64340;BME280;63709;53.258;-8.814;2023-11-21T10:24:46;103319.31;;;12.01;100.00
64340;BME280;63709;53.258;-8.814;2023-11-21T10:27:11;103296.03;;;12.03;100.00
64340;BME280;63709;53.258;-8.814;2023-11-21T10:29:40;103313.31;;;12.16;100.00
64340;BME280;63709;53.258;-8.814;2023-11-21T10:32:07;103309.94;;;12.13;100.00
64340;BME280;63709;53.258;-8.814;2023-11-21T10:34:33;103317.25;;;12.29;100.00
64340;BME280;63709;53.258;-8.814;2023-11-21T10:36:58;103323.34;;;12.33;100.00
64340;BME280;63709;53.258;-8.814;2023-11-21T10:39:24;103320.59;;;12.34;100.00
64340;BME280;63709;53.258;-8.814;2023-11-21T10:41:54;103317.75;;;12.39;100.00
64340;BME280;63709;53.258;-8.814;2023-11-21T10:44:20;103310.69;;;12.37;100.00
64340;BME280;63709;53.258;-8.814;2023-11-21T10:46:51;103327.19;;;12.48;100.00
64340;BME280;63709;53.258;-8.814;2023-11-21T10:49:20;103330.28;;;12.59;100.00
64340;BME280;63709;53.258;-8.814;2023-11-21T10:51:46;103334.69;;;12.60;100.00
64340;BME280;63709;53.258;-8.814;2023-11-21T10:54:18;103314.94;;;12.63;100.00
64340;BME280;63709;53.258;-8.814;2023-11-21T10:56:43;103326.19;;;12.71;100.00
64340;BME280;63709;53.258;-8.814;2023-11-21T10:59:10;103325.91;;;12.77;100.00
64340;BME280;63709;53.258;-8.814;2023-11-21T11:01:42;103324.63;;;12.86;100.00
64340;BME280;63709;53.258;-8.814;2023-11-21T11:04:09;103316.31;;;12.92;100.00
64340;BME280;63709;53.258;-8.814;2023-11-21T11:06:51;103322.19;;;13.20;100.00
64340;BME280;63709;53.258;-8.814;2023-11-21T11:09:19;103318.84;;;13.36;100.00
64340;BME280;63709;53.258;-8.814;2023-11-21T11:11:46;103319.78;;;13.53;100.00
64340;BME280;63709;53.258;-8.814;2023-11-21T11:14:12;103329.47;;;13.56;100.00
64340;BME280;63709;53.258;-8.814;2023-11-21T11:16:39;103320.69;;;13.71;100.00
64340;BME280;63709;53.258;-8.814;2023-11-21T11:19:06;103301.91;;;13.71;100.00
64340;BME280;63709;53.258;-8.814;2023-11-21T11:24:27;103321.75;;;13.86;100.00
64340;BME280;63709;53.258;-8.814;2023-11-21T11:32:40;103303.25;;;14.16;100.00
64340;BME280;63709;53.258;-8.814;2023-11-21T11:35:34;103302.97;;;14.22;100.00
64340;BME280;63709;53.258;-8.814;2023-11-21T11:38:02;103285.59;;;14.29;100.00
64340;BME280;63709;53.258;-8.814;2023-11-21T11:40:41;103289.78;;;14.35;100.00
64340;BME280;63709;53.258;-8.814;2023-11-21T11:43:07;103285.06;;;14.58;100.00
64340;BME280;63709;53.258;-8.814;2023-11-21T11:45:34;103267.69;;;14.65;100.00
64340;BME280;63709;53.258;-8.814;2023-11-21T11:48:01;103279.75;;;14.73;100.00
64340;BME280;63709;53.258;-8.814;2023-11-21T11:50:27;103273.22;;;14.62;100.00
64340;BME280;63709;53.258;-8.814;2023-11-21T11:52:53;103285.50;;;14.83;100.00
64340;BME280;63709;53.258;-8.814;2023-11-21T11:55:21;103279.75;;;14.73;100.00
64340;BME280;63709;53.258;-8.814;2023-11-21T11:57:52;103277.19;;;14.88;100.00
64340;BME280;63709;53.258;-8.814;2023-11-21T12:00:22;103274.25;;;14.92;100.00
64340;BME280;63709;53.258;-8.814;2023-11-21T12:03:00;103285.09;;;14.91;100.00
64340;BME280;63709;53.258;-8.814;2023-11-21T12:05:33;103290.28;;;14.94;100.00
64340;BME280;63709;53.258;-8.814;2023-11-21T12:08:06;103277.75;;;14.94;100.00
64340;BME280;63709;53.258;-8.814;2023-11-21T12:10:37;103274.53;;;15.04;100.00
64340;BME280;63709;53.258;-8.814;2023-11-21T12:13:07;103275.94;;;14.77;100.00
64340;BME280;63709;53.258;-8.814;2023-11-21T12:15:36;103281.44;;;14.92;100.00
64340;BME280;63709;53.258;-8.814;2023-11-21T12:18:03;103285.63;;;14.97;100.00
64340;BME280;63709;53.258;-8.814;2023-11-21T12:20:29;103273.38;;;14.92;100.00
64340;BME280;63709;53.258;-8.814;2023-11-21T12:22:57;103263.34;;;14.95;100.00
64340;BME280;63709;53.258;-8.814;2023-11-21T12:25:28;103268.56;;;14.98;100.00
64340;BME280;63709;53.258;-8.814;2023-11-21T12:27:56;103261.88;;;15.06;100.00
64340;BME280;63709;53.258;-8.814;2023-11-21T12:30:26;103266.38;;;15.05;100.00
64340;BME280;63709;53.258;-8.814;2023-11-21T12:32:57;103270.28;;;14.99;100.00
64340;BME280;63709;53.258;-8.814;2023-11-21T12:35:31;103281.91;;;15.00;100.00
64340;BME280;63709;53.258;-8.814;2023-11-21T12:37:59;103292.00;;;15.12;100.00